sensor_id;sensor_type;location;lat;lon;timestamp;pressure;altitude;pressure_sealevel;temperature;humidity
69247;BME280;56358;56.328;43.992;2024-01-11T00:01:39;99466.38;;;-14.53;64.15
69247;BME280;56358;56.328;43.992;2024-01-11T00:03:39;99452.69;;;-14.47;64.04
69247;BME280;56358;56.328;43.992;2024-01-11T00:05:40;99429.44;;;-14.61;64.09
69247;BME280;56358;56.328;43.992;2024-01-11T00:07:42;99360.63;;;-14.91;64.01
69247;BME280;56358;56.328;43.992;2024-01-11T00:09:43;99456.22;;;-14.33;63.99
69247;BME280;56358;56.328;43.992;2024-01-11T00:11:44;99441.66;;;-14.29;64.06
69247;BME280;56358;56.328;43.992;2024-01-11T00:13:44;99433.09;;;-14.20;63.78
69247;BME280;56358;56.328;43.992;2024-01-11T00:15:45;99415.97;;;-14.12;63.20
69247;BME280;56358;56.328;43.992;2024-01-11T00:17:46;99403.09;;;-14.10;63.44
69247;BME280;56358;56.328;43.992;2024-01-11T00:19:46;99395.41;;;-14.03;63.33
69247;BME280;56358;56.328;43.992;2024-01-11T00:21:49;99390.25;;;-14.06;63.14
69247;BME280;56358;56.328;43.992;2024-01-11T00:23:50;99386.84;;;-13.97;62.84
69247;BME280;56358;56.328;43.992;2024-01-11T00:25:50;99363.69;;;-13.92;62.66
69247;BME280;56358;56.328;43.992;2024-01-11T00:27:51;99354.22;;;-13.95;62.16
69247;BME280;56358;56.328;43.992;2024-01-11T00:29:53;99354.25;;;-13.89;61.90
69247;BME280;56358;56.328;43.992;2024-01-11T00:31:54;99346.53;;;-13.87;62.04
69247;BME280;56358;56.328;43.992;2024-01-11T00:33:55;99310.41;;;-14.06;62.19
69247;BME280;56358;56.328;43.992;2024-01-11T00:35:55;99199.53;;;-14.55;62.01
69247;BME280;56358;56.328;43.992;2024-01-11T00:37:56;99202.13;;;-14.51;61.74
69247;BME280;56358;56.328;43.992;2024-01-11T00:39:57;99233.03;;;-14.40;61.68
69247;BME280;56358;56.328;43.992;2024-01-11T00:41:57;99319.06;;;-13.82;61.36
69247;BME280;56358;56.328;43.992;2024-01-11T00:43:58;99298.41;;;-13.91;61.89
69247;BME280;56358;56.328;43.992;2024-01-11T00:45:59;99284.69;;;-13.84;61.50
69247;BME280;56358;56.328;43.992;2024-01-11T00:48:00;99236.53;;;-14.04;61.62
69247;BME280;56358;56.328;43.992;2024-01-11T00:50:00;99206.50;;;-14.22;61.83
69247;BME280;56358;56.328;43.992;2024-01-11T00:52:01;99283.81;;;-13.82;62.18
69247;BME280;56358;56.328;43.992;2024-01-11T00:54:02;99166.09;;;-14.46;61.46
69247;BME280;56358;56.328;43.992;2024-01-11T00:56:03;99253.78;;;-13.75;61.87
69247;BME280;56358;56.328;43.992;2024-01-11T00:58:03;99243.47;;;-13.75;61.55
69247;BME280;56358;56.328;43.992;2024-01-11T01:00:05;99238.31;;;-13.76;61.13
69247;BME280;56358;56.328;43.992;2024-01-11T01:02:06;99211.69;;;-13.85;61.23
69247;BME280;56358;56.328;43.992;2024-01-11T01:04:07;99206.50;;;-13.77;61.19
69247;BME280;56358;56.328;43.992;2024-01-11T01:06:07;99136.94;;;-14.06;60.98
69247;BME280;56358;56.328;43.992;2024-01-11T01:08:08;99193.63;;;-13.68;60.96
69247;BME280;56358;56.328;43.992;2024-01-11T01:10:09;99193.63;;;-13.68;60.74
69247;BME280;56358;56.328;43.992;2024-01-11T01:12:09;99174.75;;;-13.82;60.83
69247;BME280;56358;56.328;43.992;2024-01-11T01:14:10;99130.06;;;-13.92;60.59
69247;BME280;56358;56.328;43.992;2024-01-11T01:16:11;99055.41;;;-14.30;60.68
69247;BME280;56358;56.328;43.992;2024-01-11T01:18:11;99048.53;;;-14.25;60.63
69247;BME280;56358;56.328;43.992;2024-01-11T01:20:12;99135.19;;;-13.70;60.63
69247;BME280;56358;56.328;43.992;2024-01-11T01:22:13;99026.22;;;-14.26;60.88
69247;BME280;56358;56.328;43.992;2024-01-11T01:24:14;99130.91;;;-13.60;60.60
69247;BME280;56358;56.328;43.992;2024-01-11T01:26:14;99108.59;;;-13.72;60.55
69247;BME280;56358;56.328;43.992;2024-01-11T01:28:15;99129.19;;;-13.63;61.14
69247;BME280;56358;56.328;43.992;2024-01-11T01:30:16;99125.75;;;-13.59;60.95
69247;BME280;56358;56.328;43.992;2024-01-11T01:32:16;99129.16;;;-13.52;60.96
69247;BME280;56358;56.328;43.992;2024-01-11T01:34:17;98971.28;;;-14.19;61.07
69247;BME280;56358;56.328;43.992;2024-01-11T01:36:18;99074.19;;;-13.51;61.24
69247;BME280;56358;56.328;43.992;2024-01-11T01:38:19;99055.25;;;-13.52;61.05
69247;BME280;56358;56.328;43.992;2024-01-11T01:40:19;99067.25;;;-13.46;60.85
69247;BME280;56358;56.328;43.992;2024-01-11T01:42:20;99056.09;;;-13.42;60.65
69247;BME280;56358;56.328;43.992;2024-01-11T01:44:20;99014.03;;;-13.56;60.89
69247;BME280;56358;56.328;43.992;2024-01-11T01:46:24;99024.22;;;-13.35;61.10
69247;BME280;56358;56.328;43.992;2024-01-11T01:48:27;99008.78;;;-13.39;60.96
69247;BME280;56358;56.328;43.992;2024-01-11T01:50:28;99013.00;;;-13.23;60.68
69247;BME280;56358;56.328;43.992;2024-01-11T01:52:29;98981.22;;;-13.28;60.25
69247;BME280;56358;56.328;43.992;2024-01-11T01:54:31;98987.19;;;-13.26;60.38
69247;BME280;56358;56.328;43.992;2024-01-11T01:56:32;98991.44;;;-13.16;60.69
69247;BME280;56358;56.328;43.992;2024-01-11T01:58:33;98957.91;;;-13.16;60.90
69247;BME280;56358;56.328;43.992;2024-01-11T02:00:34;98951.88;;;-13.11;61.05
69247;BME280;56358;56.328;43.992;2024-01-11T02:02:35;98940.69;;;-13.10;61.35
69247;BME280;56358;56.328;43.992;2024-01-11T02:04:36;98937.25;;;-13.08;61.54
69247;BME280;56358;56.328;43.992;2024-01-11T02:06:37;98918.34;;;-13.11;61.34
69247;BME280;56358;56.328;43.992;2024-01-11T02:08:40;98909.66;;;-13.00;61.17
69247;BME280;56358;56.328;43.992;2024-01-11T02:10:43;98923.41;;;-13.01;61.43
69247;BME280;56358;56.328;43.992;2024-01-11T02:12:44;98841.13;;;-13.32;61.73
69247;BME280;56358;56.328;43.992;2024-01-11T02:14:45;98875.28;;;-13.05;62.28
69247;BME280;56358;56.328;43.992;2024-01-11T02:16:46;98865.78;;;-13.00;62.73
69247;BME280;56358;56.328;43.992;2024-01-11T02:18:47;98831.50;;;-13.14;63.02
69247;BME280;56358;56.328;43.992;2024-01-11T02:20:47;98820.38;;;-13.16;63.13
69247;BME280;56358;56.328;43.992;2024-01-11T02:22:52;98834.81;;;-12.95;63.43
69247;BME280;56358;56.328;43.992;2024-01-11T02:24:53;98849.47;;;-13.00;63.16
69247;BME280;56358;56.328;43.992;2024-01-11T02:27:01;98780.88;;;-13.26;63.54
69247;BME280;56358;56.328;43.992;2024-01-11T02:29:02;98815.13;;;-13.07;64.08
69247;BME280;56358;56.328;43.992;2024-01-11T02:31:03;98803.06;;;-13.05;64.46
69247;BME280;56358;56.328;43.992;2024-01-11T02:33:04;98784.19;;;-13.08;64.75
69247;BME280;56358;56.328;43.992;2024-01-11T02:35:06;98808.25;;;-13.08;65.46
69247;BME280;56358;56.328;43.992;2024-01-11T02:37:07;98767.00;;;-13.09;65.56
69247;BME280;56358;56.328;43.992;2024-01-11T02:39:08;98761.81;;;-13.08;65.98
69247;BME280;56358;56.328;43.992;2024-01-11T02:41:08;98770.44;;;-13.10;66.19
69247;BME280;56358;56.328;43.992;2024-01-11T02:43:10;98762.69;;;-13.09;66.52
69247;BME280;56358;56.328;43.992;2024-01-11T02:45:11;98747.22;;;-13.10;67.16
69247;BME280;56358;56.328;43.992;2024-01-11T02:47:15;98656.56;;;-13.51;66.95
69247;BME280;56358;56.328;43.992;2024-01-11T02:49:16;98710.28;;;-13.14;66.96
69247;BME280;56358;56.328;43.992;2024-01-11T02:51:17;98709.47;;;-13.18;67.38
69247;BME280;56358;56.328;43.992;2024-01-11T02:53:17;98685.50;;;-13.27;67.61
69247;BME280;56358;56.328;43.992;2024-01-11T02:55:18;98632.59;;;-13.61;67.54
69247;BME280;56358;56.328;43.992;2024-01-11T02:57:19;98676.06;;;-13.28;68.25
69247;BME280;56358;56.328;43.992;2024-01-11T02:59:20;98664.16;;;-13.39;68.37
69247;BME280;56358;56.328;43.992;2024-01-11T03:01:21;98675.25;;;-13.32;68.52
69247;BME280;56358;56.328;43.992;2024-01-11T03:03:22;98649.47;;;-13.34;68.55
69247;BME280;56358;56.328;43.992;2024-01-11T03:05:22;98625.47;;;-13.37;68.71
69247;BME280;56358;56.328;43.992;2024-01-11T03:07:23;98624.53;;;-13.33;68.82
69247;BME280;56358;56.328;43.992;2024-01-11T03:09:24;98597.00;;;-13.29;69.00
69247;BME280;56358;56.328;43.992;2024-01-11T03:11:24;98596.16;;;-13.32;68.71
69247;BME280;56358;56.328;43.992;2024-01-11T03:13:25;98588.31;;;-13.22;69.18
69247;BME280;56358;56.328;43.992;2024-01-11T03:15:26;98535.31;;;-13.42;69.26
69247;BME280;56358;56.328;43.992;2024-01-11T03:17:26;98571.94;;;-13.20;69.28
69247;BME280;56358;56.328;43.992;2024-01-11T03:19:27;98553.81;;;-13.13;69.45
69247;BME280;56358;56.328;43.992;2024-01-11T03:21:28;98528.97;;;-13.21;69.34
69247;BME280;56358;56.328;43.992;2024-01-11T03:23:28;98450.56;;;-13.68;69.69
69247;BME280;56358;56.328;43.992;2024-01-11T03:25:29;98515.19;;;-13.18;69.64
69247;BME280;56358;56.328;43.992;2024-01-11T03:27:30;98401.69;;;-13.74;69.35
69247;BME280;56358;56.328;43.992;2024-01-11T03:29:31;98505.59;;;-13.10;69.69
69247;BME280;56358;56.328;43.992;2024-01-11T03:31:31;98516.75;;;-13.08;69.93
69247;BME280;56358;56.328;43.992;2024-01-11T03:33:32;98468.09;;;-13.33;70.22
69247;BME280;56358;56.328;43.992;2024-01-11T03:35:32;98474.75;;;-13.16;70.19
69247;BME280;56358;56.328;43.992;2024-01-11T03:37:33;98479.81;;;-13.08;70.11
69247;BME280;56358;56.328;43.992;2024-01-11T03:39:34;98479.72;;;-13.04;70.46
69247;BME280;56358;56.328;43.992;2024-01-11T03:41:35;98459.06;;;-13.02;70.37
69247;BME280;56358;56.328;43.992;2024-01-11T03:43:36;98421.41;;;-13.12;71.04
69247;BME280;56358;56.328;43.992;2024-01-11T03:45:37;98447.03;;;-13.02;70.96
69247;BME280;56358;56.328;43.992;2024-01-11T03:47:38;98414.31;;;-13.00;71.16
69247;BME280;56358;56.328;43.992;2024-01-11T03:49:38;98415.13;;;-12.96;71.37
69247;BME280;56358;56.328;43.992;2024-01-11T03:51:39;98406.41;;;-12.89;71.51
69247;BME280;56358;56.328;43.992;2024-01-11T03:53:40;98377.22;;;-12.91;71.50
69247;BME280;56358;56.328;43.992;2024-01-11T03:55:40;98356.81;;;-13.06;71.58
69247;BME280;56358;56.328;43.992;2024-01-11T03:57:41;98359.13;;;-12.89;71.92
69247;BME280;56358;56.328;43.992;2024-01-11T03:59:42;98343.69;;;-12.92;71.90
69247;BME280;56358;56.328;43.992;2024-01-11T04:01:43;98278.94;;;-13.27;72.37
69247;BME280;56358;56.328;43.992;2024-01-11T04:03:44;98357.19;;;-12.78;72.35
69247;BME280;56358;56.328;43.992;2024-01-11T04:05:44;98360.56;;;-12.74;72.15
69247;BME280;56358;56.328;43.992;2024-01-11T04:07:45;98248.94;;;-13.31;72.05
69247;BME280;56358;56.328;43.992;2024-01-11T04:09:46;98361.44;;;-12.75;72.26
69247;BME280;56358;56.328;43.992;2024-01-11T04:11:46;98347.69;;;-12.76;72.63
69247;BME280;56358;56.328;43.992;2024-01-11T04:13:47;98286.03;;;-12.91;72.68
69247;BME280;56358;56.328;43.992;2024-01-11T04:15:47;98318.34;;;-12.70;73.14
69247;BME280;56358;56.328;43.992;2024-01-11T04:17:48;98287.56;;;-12.81;72.85
69247;BME280;56358;56.328;43.992;2024-01-11T04:19:49;98301.06;;;-12.67;73.06
69247;BME280;56358;56.328;43.992;2024-01-11T04:21:49;98292.66;;;-12.78;72.90
69247;BME280;56358;56.328;43.992;2024-01-11T04:23:50;98298.44;;;-12.64;72.88
69247;BME280;56358;56.328;43.992;2024-01-11T04:25:51;98289.84;;;-12.64;72.79
69247;BME280;56358;56.328;43.992;2024-01-11T04:27:52;98319.09;;;-12.65;72.91
69247;BME280;56358;56.328;43.992;2024-01-11T04:29:53;98284.69;;;-12.64;73.07
69247;BME280;56358;56.328;43.992;2024-01-11T04:31:54;98307.94;;;-12.67;73.53
69247;BME280;56358;56.328;43.992;2024-01-11T04:33:54;98273.66;;;-12.72;73.56
69247;BME280;56358;56.328;43.992;2024-01-11T04:35:55;98276.22;;;-12.71;73.48
69247;BME280;56358;56.328;43.992;2024-01-11T04:37:55;98264.97;;;-12.70;73.70
69247;BME280;56358;56.328;43.992;2024-01-11T04:39:56;98252.91;;;-12.68;73.58
69247;BME280;56358;56.328;43.992;2024-01-11T04:42:00;98276.03;;;-12.63;73.54
69247;BME280;56358;56.328;43.992;2024-01-11T04:44:04;98270.00;;;-12.62;73.72
69247;BME280;56358;56.328;43.992;2024-01-11T04:46:34;98256.19;;;-12.59;73.85
69247;BME280;56358;56.328;43.992;2024-01-11T04:48:35;98244.97;;;-12.58;73.49
69247;BME280;56358;56.328;43.992;2024-01-11T04:50:35;98246.72;;;-12.60;73.42
69247;BME280;56358;56.328;43.992;2024-01-11T04:52:36;98236.31;;;-12.56;73.79
69247;BME280;56358;56.328;43.992;2024-01-11T04:54:37;98220.09;;;-12.61;74.09
69247;BME280;56358;56.328;43.992;2024-01-11T04:56:38;98215.63;;;-12.54;73.73
69247;BME280;56358;56.328;43.992;2024-01-11T04:58:40;98210.38;;;-12.50;73.75
69247;BME280;56358;56.328;43.992;2024-01-11T05:00:41;98198.38;;;-12.51;73.91
69247;BME280;56358;56.328;43.992;2024-01-11T05:02:42;98199.94;;;-12.45;73.85
69247;BME280;56358;56.328;43.992;2024-01-11T05:04:43;98101.38;;;-13.03;73.68
69247;BME280;56358;56.328;43.992;2024-01-11T05:06:43;98182.69;;;-12.43;73.93
69247;BME280;56358;56.328;43.992;2024-01-11T05:08:49;98174.03;;;-12.40;74.05
69247;BME280;56358;56.328;43.992;2024-01-11T05:10:50;98170.53;;;-12.38;74.17
69247;BME280;56358;56.328;43.992;2024-01-11T05:12:50;98144.75;;;-12.39;74.29
69247;BME280;56358;56.328;43.992;2024-01-11T05:14:51;98146.53;;;-12.41;74.03
69247;BME280;56358;56.328;43.992;2024-01-11T05:16:51;98133.69;;;-12.46;73.77
69247;BME280;56358;56.328;43.992;2024-01-11T05:18:54;98132.88;;;-12.47;73.56
69247;BME280;56358;56.328;43.992;2024-01-11T05:20:54;98141.06;;;-12.29;73.54
69247;BME280;56358;56.328;43.992;2024-01-11T05:22:55;98125.56;;;-12.29;73.76
69247;BME280;56358;56.328;43.992;2024-01-11T05:24:56;98128.91;;;-12.24;73.85
69247;BME280;56358;56.328;43.992;2024-01-11T05:26:57;98132.25;;;-12.20;73.36
69247;BME280;56358;56.328;43.992;2024-01-11T05:28:58;97947.22;;;-13.28;73.25
69247;BME280;56358;56.328;43.992;2024-01-11T05:30:59;98118.50;;;-12.21;73.20
69247;BME280;56358;56.328;43.992;2024-01-11T05:33:00;98115.81;;;-12.18;73.39
69247;BME280;56358;56.328;43.992;2024-01-11T05:35:01;98095.94;;;-12.14;73.29
69247;BME280;56358;56.328;43.992;2024-01-11T05:37:02;98097.59;;;-12.11;73.56
69247;BME280;56358;56.328;43.992;2024-01-11T05:39:03;98066.91;;;-12.24;73.05
69247;BME280;56358;56.328;43.992;2024-01-11T05:41:03;98064.81;;;-12.08;72.54
69247;BME280;56358;56.328;43.992;2024-01-11T05:43:04;98061.53;;;-12.15;72.64
69247;BME280;56358;56.328;43.992;2024-01-11T05:45:06;98032.75;;;-12.35;72.91
69247;BME280;56358;56.328;43.992;2024-01-11T05:47:07;97962.16;;;-12.69;73.05
69247;BME280;56358;56.328;43.992;2024-01-11T05:49:07;98038.94;;;-12.06;73.20
69247;BME280;56358;56.328;43.992;2024-01-11T05:51:09;97993.88;;;-12.29;72.77
69247;BME280;56358;56.328;43.992;2024-01-11T05:53:10;97924.13;;;-12.62;72.64
69247;BME280;56358;56.328;43.992;2024-01-11T05:55:11;98003.72;;;-12.10;72.74
69247;BME280;56358;56.328;43.992;2024-01-11T05:57:12;98022.41;;;-12.01;72.73
69247;BME280;56358;56.328;43.992;2024-01-11T05:59:13;98008.56;;;-11.98;72.44
69247;BME280;56358;56.328;43.992;2024-01-11T06:01:13;98001.59;;;-11.94;72.22
69247;BME280;56358;56.328;43.992;2024-01-11T06:03:14;97986.16;;;-11.98;72.43
69247;BME280;56358;56.328;43.992;2024-01-11T06:05:15;97897.06;;;-12.47;72.58
69247;BME280;56358;56.328;43.992;2024-01-11T06:07:16;97976.63;;;-11.95;72.23
69247;BME280;56358;56.328;43.992;2024-01-11T06:09:17;97942.63;;;-12.11;72.36
69247;BME280;56358;56.328;43.992;2024-01-11T06:11:17;97946.72;;;-12.04;72.09
69247;BME280;56358;56.328;43.992;2024-01-11T06:13:19;97968.81;;;-11.94;72.34
69247;BME280;56358;56.328;43.992;2024-01-11T06:15:19;97922.25;;;-12.22;71.71
69247;BME280;56358;56.328;43.992;2024-01-11T06:17:20;97934.63;;;-12.02;72.12
69247;BME280;56358;56.328;43.992;2024-01-11T06:19:22;97962.06;;;-11.98;72.31
69247;BME280;56358;56.328;43.992;2024-01-11T06:21:22;97925.88;;;-11.98;72.54
69247;BME280;56358;56.328;43.992;2024-01-11T06:23:25;97916.34;;;-11.96;72.40
69247;BME280;56358;56.328;43.992;2024-01-11T06:25:25;97924.72;;;-11.89;72.01
69247;BME280;56358;56.328;43.992;2024-01-11T06:27:26;97908.44;;;-11.91;71.83
69247;BME280;56358;56.328;43.992;2024-01-11T06:29:27;97921.66;;;-12.01;71.77
69247;BME280;56358;56.328;43.992;2024-01-11T06:31:28;97898.41;;;-12.01;71.92
69247;BME280;56358;56.328;43.992;2024-01-11T06:33:29;97905.03;;;-11.92;72.28
69247;BME280;56358;56.328;43.992;2024-01-11T06:35:30;97900.00;;;-11.97;72.23
69247;BME280;56358;56.328;43.992;2024-01-11T06:37:31;97786.22;;;-12.52;72.34
69247;BME280;56358;56.328;43.992;2024-01-11T06:39:32;97873.09;;;-11.91;72.07
69247;BME280;56358;56.328;43.992;2024-01-11T06:41:32;97858.38;;;-11.87;72.31
69247;BME280;56358;56.328;43.992;2024-01-11T06:43:33;97868.59;;;-11.84;71.95
69247;BME280;56358;56.328;43.992;2024-01-11T06:45:34;97849.16;;;-11.94;71.88
69247;BME280;56358;56.328;43.992;2024-01-11T06:47:35;97857.38;;;-11.83;71.95
69247;BME280;56358;56.328;43.992;2024-01-11T06:49:38;97861.50;;;-11.77;72.04
69247;BME280;56358;56.328;43.992;2024-01-11T06:51:40;97844.22;;;-11.75;72.18
69247;BME280;56358;56.328;43.992;2024-01-11T06:53:41;97864.84;;;-11.74;71.94
69247;BME280;56358;56.328;43.992;2024-01-11T06:55:42;97855.28;;;-11.70;71.81
69247;BME280;56358;56.328;43.992;2024-01-11T06:57:47;97757.06;;;-12.25;71.81
69247;BME280;56358;56.328;43.992;2024-01-11T06:59:48;97825.94;;;-11.69;72.08
69247;BME280;56358;56.328;43.992;2024-01-11T07:01:49;97825.97;;;-11.71;71.69
69247;BME280;56358;56.328;43.992;2024-01-11T07:03:50;97823.56;;;-11.75;71.63
69247;BME280;56358;56.328;43.992;2024-01-11T07:05:51;97809.88;;;-11.79;71.56
69247;BME280;56358;56.328;43.992;2024-01-11T07:07:51;97711.47;;;-12.26;71.71
69247;BME280;56358;56.328;43.992;2024-01-11T07:09:52;97795.97;;;-11.75;72.16
69247;BME280;56358;56.328;43.992;2024-01-11T07:11:55;97814.53;;;-11.62;72.06
69247;BME280;56358;56.328;43.992;2024-01-11T07:13:56;97789.16;;;-11.77;71.65
69247;BME280;56358;56.328;43.992;2024-01-11T07:15:57;97802.19;;;-11.54;71.78
69247;BME280;56358;56.328;43.992;2024-01-11T07:17:58;97800.50;;;-11.55;71.56
69247;BME280;56358;56.328;43.992;2024-01-11T07:19:59;97684.31;;;-12.11;71.74
69247;BME280;56358;56.328;43.992;2024-01-11T07:22:00;97778.41;;;-11.64;71.58
69247;BME280;56358;56.328;43.992;2024-01-11T07:24:01;97783.00;;;-11.47;71.51
69247;BME280;56358;56.328;43.992;2024-01-11T07:26:02;97775.22;;;-11.45;71.78
69247;BME280;56358;56.328;43.992;2024-01-11T07:28:03;97798.38;;;-11.42;71.34
69247;BME280;56358;56.328;43.992;2024-01-11T07:30:04;97757.38;;;-11.53;70.87
69247;BME280;56358;56.328;43.992;2024-01-11T07:32:06;97769.06;;;-11.42;71.43
69247;BME280;56358;56.328;43.992;2024-01-11T07:34:07;97785.34;;;-11.39;71.76
69247;BME280;56358;56.328;43.992;2024-01-11T07:36:07;97540.69;;;-12.69;71.69
69247;BME280;56358;56.328;43.992;2024-01-11T07:38:09;97754.19;;;-11.36;71.77
69247;BME280;56358;56.328;43.992;2024-01-11T07:40:10;97746.31;;;-11.31;71.78
69247;BME280;56358;56.328;43.992;2024-01-11T07:42:11;97754.69;;;-11.24;71.89
69247;BME280;56358;56.328;43.992;2024-01-11T07:44:12;97702.44;;;-11.59;71.91
69247;BME280;56358;56.328;43.992;2024-01-11T07:46:13;97753.59;;;-11.17;71.87
69247;BME280;56358;56.328;43.992;2024-01-11T07:48:13;97633.44;;;-11.84;71.83
69247;BME280;56358;56.328;43.992;2024-01-11T07:50:14;97733.69;;;-11.15;71.82
69247;BME280;56358;56.328;43.992;2024-01-11T07:52:15;97625.31;;;-11.73;71.42
69247;BME280;56358;56.328;43.992;2024-01-11T07:54:15;97723.34;;;-11.15;71.38
69247;BME280;56358;56.328;43.992;2024-01-11T07:56:16;97681.75;;;-11.34;71.70
69247;BME280;56358;56.328;43.992;2024-01-11T07:58:17;97724.03;;;-11.10;71.89
69247;BME280;56358;56.328;43.992;2024-01-11T08:00:19;97719.50;;;-11.03;71.58
69247;BME280;56358;56.328;43.992;2024-01-11T08:02:20;97612.72;;;-11.57;71.51
69247;BME280;56358;56.328;43.992;2024-01-11T08:04:20;97708.91;;;-10.97;71.44
69247;BME280;56358;56.328;43.992;2024-01-11T08:06:21;97713.03;;;-10.91;71.62
69247;BME280;56358;56.328;43.992;2024-01-11T08:08:22;97696.59;;;-10.90;71.62
69247;BME280;56358;56.328;43.992;2024-01-11T08:10:22;97651.97;;;-11.21;71.79
69247;BME280;56358;56.328;43.992;2024-01-11T08:12:23;97688.63;;;-10.84;71.43
69247;BME280;56358;56.328;43.992;2024-01-11T08:14:24;97680.13;;;-10.88;71.60
69247;BME280;56358;56.328;43.992;2024-01-11T08:16:25;97639.56;;;-11.11;71.67
69247;BME280;56358;56.328;43.992;2024-01-11T08:18:25;97605.69;;;-11.29;71.97
69247;BME280;56358;56.328;43.992;2024-01-11T08:20:27;97585.22;;;-11.35;71.89
69247;BME280;56358;56.328;43.992;2024-01-11T08:22:28;97664.19;;;-10.77;72.02
69247;BME280;56358;56.328;43.992;2024-01-11T08:24:29;97564.47;;;-11.33;72.10
69247;BME280;56358;56.328;43.992;2024-01-11T08:26:29;97657.56;;;-10.60;71.93
69247;BME280;56358;56.328;43.992;2024-01-11T08:28:31;97638.91;;;-10.70;71.34
69247;BME280;56358;56.328;43.992;2024-01-11T08:30:32;97647.06;;;-10.57;71.23
69247;BME280;56358;56.328;43.992;2024-01-11T08:32:33;97657.56;;;-10.60;71.21
69247;BME280;56358;56.328;43.992;2024-01-11T08:34:39;97641.97;;;-10.59;71.53
69247;BME280;56358;56.328;43.992;2024-01-11T08:36:40;97645.09;;;-10.51;71.60
69247;BME280;56358;56.328;43.992;2024-01-11T08:38:40;97655.88;;;-10.62;71.31
69247;BME280;56358;56.328;43.992;2024-01-11T08:40:41;97618.66;;;-10.59;71.51
69247;BME280;56358;56.328;43.992;2024-01-11T08:42:42;97633.94;;;-10.53;71.04
69247;BME280;56358;56.328;43.992;2024-01-11T08:44:43;97634.38;;;-10.41;70.70
69247;BME280;56358;56.328;43.992;2024-01-11T08:46:44;97570.47;;;-10.85;71.14
69247;BME280;56358;56.328;43.992;2024-01-11T08:48:44;97630.59;;;-10.34;71.40
69247;BME280;56358;56.328;43.992;2024-01-11T08:50:45;97646.75;;;-10.28;71.59
69247;BME280;56358;56.328;43.992;2024-01-11T08:52:46;97623.28;;;-10.23;71.34
69247;BME280;56358;56.328;43.992;2024-01-11T08:54:47;97618.19;;;-10.26;70.77
69247;BME280;56358;56.328;43.992;2024-01-11T08:56:47;97619.06;;;-10.25;70.81
69247;BME280;56358;56.328;43.992;2024-01-11T08:58:48;97617.66;;;-10.34;70.75
69247;BME280;56358;56.328;43.992;2024-01-11T09:00:49;97607.28;;;-10.34;70.99
69247;BME280;56358;56.328;43.992;2024-01-11T09:02:49;97628.31;;;-10.20;71.35
69247;BME280;56358;56.328;43.992;2024-01-11T09:04:50;97515.63;;;-10.73;70.68
69247;BME280;56358;56.328;43.992;2024-01-11T09:06:51;97600.66;;;-10.19;70.40
69247;BME280;56358;56.328;43.992;2024-01-11T09:08:51;97598.06;;;-10.19;71.04
69247;BME280;56358;56.328;43.992;2024-01-11T09:10:52;97582.25;;;-10.34;70.70
69247;BME280;56358;56.328;43.992;2024-01-11T09:12:53;97595.06;;;-10.31;71.13
69247;BME280;56358;56.328;43.992;2024-01-11T09:14:54;97584.66;;;-10.29;71.46
69247;BME280;56358;56.328;43.992;2024-01-11T09:16:55;97592.47;;;-10.31;71.43
69247;BME280;56358;56.328;43.992;2024-01-11T09:18:56;97589.16;;;-10.34;71.52
69247;BME280;56358;56.328;43.992;2024-01-11T09:20:56;97575.91;;;-10.47;71.43
69247;BME280;56358;56.328;43.992;2024-01-11T09:22:57;97592.41;;;-10.29;71.55
69247;BME280;56358;56.328;43.992;2024-01-11T09:24:58;97595.06;;;-10.31;71.68
69247;BME280;56358;56.328;43.992;2024-01-11T09:26:58;97584.56;;;-10.28;71.81
69247;BME280;56358;56.328;43.992;2024-01-11T09:28:59;97587.16;;;-10.28;71.90
69247;BME280;56358;56.328;43.992;2024-01-11T09:31:00;97556.47;;;-10.37;71.92
69247;BME280;56358;56.328;43.992;2024-01-11T09:33:02;97500.75;;;-10.68;72.16
69247;BME280;56358;56.328;43.992;2024-01-11T09:35:03;97575.59;;;-10.19;72.87
69247;BME280;56358;56.328;43.992;2024-01-11T09:37:05;97448.22;;;-10.92;72.69
69247;BME280;56358;56.328;43.992;2024-01-11T09:39:06;97570.28;;;-10.16;73.04
69247;BME280;56358;56.328;43.992;2024-01-11T09:41:09;97571.00;;;-10.12;73.08
69247;BME280;56358;56.328;43.992;2024-01-11T09:43:11;97558.81;;;-10.10;72.98
69247;BME280;56358;56.328;43.992;2024-01-11T09:45:14;97574.63;;;-10.16;72.69
69247;BME280;56358;56.328;43.992;2024-01-11T09:47:16;97559.84;;;-10.14;72.60
69247;BME280;56358;56.328;43.992;2024-01-11T09:49:19;97563.31;;;-10.14;72.85
69247;BME280;56358;56.328;43.992;2024-01-11T09:51:22;97562.50;;;-10.16;72.96
69247;BME280;56358;56.328;43.992;2024-01-11T09:53:24;97573.47;;;-10.09;72.95
69247;BME280;56358;56.328;43.992;2024-01-11T09:55:26;97571.66;;;-10.07;72.90
69247;BME280;56358;56.328;43.992;2024-01-11T09:57:31;97491.72;;;-10.57;73.32
69247;BME280;56358;56.328;43.992;2024-01-11T09:59:36;97574.97;;;-10.03;73.35
69247;BME280;56358;56.328;43.992;2024-01-11T10:01:36;97570.50;;;-10.00;73.56
69247;BME280;56358;56.328;43.992;2024-01-11T10:03:41;97571.16;;;-9.95;73.16
69247;BME280;56358;56.328;43.992;2024-01-11T10:05:42;97579.44;;;-9.86;73.22
69247;BME280;56358;56.328;43.992;2024-01-11T10:07:44;97462.66;;;-10.43;73.27
69247;BME280;56358;56.328;43.992;2024-01-11T10:09:46;97556.84;;;-9.83;73.49
69247;BME280;56358;56.328;43.992;2024-01-11T10:11:46;97560.13;;;-9.79;73.45
69247;BME280;56358;56.328;43.992;2024-01-11T10:13:48;97553.06;;;-9.75;73.16
69247;BME280;56358;56.328;43.992;2024-01-11T10:16:12;97546.25;;;-9.78;73.43
69247;BME280;56358;56.328;43.992;2024-01-11T10:18:16;97530.06;;;-9.83;73.37
69247;BME280;56358;56.328;43.992;2024-01-11T10:20:17;97542.50;;;-9.71;73.42
69247;BME280;56358;56.328;43.992;2024-01-11T10:22:18;97541.53;;;-9.68;73.48
69247;BME280;56358;56.328;43.992;2024-01-11T10:24:20;97547.56;;;-9.68;73.60
69247;BME280;56358;56.328;43.992;2024-01-11T10:26:22;97488.69;;;-10.05;73.81